sensor_id;sensor_type;location;lat;lon;timestamp;pressure;altitude;pressure_sealevel;temperature;humidity
30897;BME280;64229;52.246;21.054;2022-11-12T00:02:23;101961.41;;;10.28;95.71
30897;BME280;64229;52.246;21.054;2022-11-12T00:04:49;101957.59;;;10.42;94.35
30897;BME280;64229;52.246;21.054;2022-11-12T00:07:14;101947.03;;;10.29;94.36
30897;BME280;64229;52.246;21.054;2022-11-12T00:09:39;101964.63;;;10.37;94.97
30897;BME280;64229;52.246;21.054;2022-11-12T00:12:05;101962.47;;;10.46;94.16
30897;BME280;64229;52.246;21.054;2022-11-12T00:14:30;101962.47;;;10.46;94.14
30897;BME280;64229;52.246;21.054;2022-11-12T00:16:55;101962.53;;;10.57;92.97
30897;BME280;64229;52.246;21.054;2022-11-12T00:19:20;101964.53;;;10.62;92.98
30897;BME280;64229;52.246;21.054;2022-11-12T00:21:46;101965.72;;;10.48;93.61
30897;BME280;64229;52.246;21.054;2022-11-12T00:24:11;101970.47;;;10.46;93.57
30897;BME280;64229;52.246;21.054;2022-11-12T00:26:36;101974.19;;;10.45;93.85
30897;BME280;64229;52.246;21.054;2022-11-12T00:29:02;101976.03;;;10.44;94.16
30897;BME280;64229;52.246;21.054;2022-11-12T00:31:27;101976.69;;;10.39;94.40
30897;BME280;64229;52.246;21.054;2022-11-12T00:33:52;101973.66;;;10.36;94.96
30897;BME280;64229;52.246;21.054;2022-11-12T00:36:19;101977.50;;;10.40;94.82
30897;BME280;64229;52.246;21.054;2022-11-12T00:38:44;101973.44;;;10.37;94.60
30897;BME280;64229;52.246;21.054;2022-11-12T00:41:09;101974.03;;;10.39;94.80
30897;BME280;64229;52.246;21.054;2022-11-12T00:43:35;101967.22;;;10.43;94.47
30897;BME280;64229;52.246;21.054;2022-11-12T00:46:00;101975.94;;;10.51;93.62
30897;BME280;64229;52.246;21.054;2022-11-12T00:48:25;101973.75;;;10.48;93.79
30897;BME280;64229;52.246;21.054;2022-11-12T00:50:58;101968.25;;;10.42;94.20
30897;BME280;64229;52.246;21.054;2022-11-12T00:53:23;101969.81;;;10.50;93.92
30897;BME280;64229;52.246;21.054;2022-11-12T00:55:48;101973.75;;;10.48;94.51
30897;BME280;64229;52.246;21.054;2022-11-12T00:58:14;101966.91;;;10.52;93.77
30897;BME280;64229;52.246;21.054;2022-11-12T01:00:39;101967.06;;;10.57;93.62
30897;BME280;64229;52.246;21.054;2022-11-12T01:03:04;101962.84;;;10.49;93.97
30897;BME280;64229;52.246;21.054;2022-11-12T01:05:31;101954.47;;;10.46;94.30
30897;BME280;64229;52.246;21.054;2022-11-12T01:07:57;101953.25;;;10.41;94.75
30897;BME280;64229;52.246;21.054;2022-11-12T01:10:22;101963.06;;;10.48;94.29
30897;BME280;64229;52.246;21.054;2022-11-12T01:12:47;101959.06;;;10.57;93.43
30897;BME280;64229;52.246;21.054;2022-11-12T01:15:13;101963.59;;;10.56;93.40
30897;BME280;64229;52.246;21.054;2022-11-12T01:17:38;101947.28;;;10.46;93.11
30897;BME280;64229;52.246;21.054;2022-11-12T01:20:04;101960.44;;;10.41;93.95
30897;BME280;64229;52.246;21.054;2022-11-12T01:22:29;101962.31;;;10.40;94.43
30897;BME280;64229;52.246;21.054;2022-11-12T01:24:54;101958.69;;;10.35;94.41
30897;BME280;64229;52.246;21.054;2022-11-12T01:27:20;101951.44;;;10.42;93.82
30897;BME280;64229;52.246;21.054;2022-11-12T01:29:45;101957.78;;;10.41;94.54
30897;BME280;64229;52.246;21.054;2022-11-12T01:32:10;101958.59;;;10.41;94.67
30897;BME280;64229;52.246;21.054;2022-11-12T01:34:36;101960.78;;;10.33;94.81
30897;BME280;64229;52.246;21.054;2022-11-12T01:37:01;101940.16;;;10.22;95.06
30897;BME280;64229;52.246;21.054;2022-11-12T01:39:26;101963.22;;;10.34;94.98
30897;BME280;64229;52.246;21.054;2022-11-12T01:41:52;101959.97;;;10.32;95.26
30897;BME280;64229;52.246;21.054;2022-11-12T01:44:22;101965.28;;;10.32;95.31
30897;BME280;64229;52.246;21.054;2022-11-12T01:49:57;101978.78;;;10.37;95.37
30897;BME280;64229;52.246;21.054;2022-11-12T01:52:40;101973.69;;;10.54;93.85
30897;BME280;64229;52.246;21.054;2022-11-12T01:55:10;101961.72;;;10.57;92.84
30897;BME280;64229;52.246;21.054;2022-11-12T01:57:48;101967.06;;;10.57;93.51
30897;BME280;64229;52.246;21.054;2022-11-12T02:00:16;101960.69;;;10.58;93.20
30897;BME280;64229;52.246;21.054;2022-11-12T02:02:44;101963.88;;;10.48;93.79
30897;BME280;64229;52.246;21.054;2022-11-12T02:05:11;101969.22;;;10.48;93.53
30897;BME280;64229;52.246;21.054;2022-11-12T02:07:40;101963.28;;;10.46;94.03
30897;BME280;64229;52.246;21.054;2022-11-12T02:10:06;101960.16;;;10.49;94.11
30897;BME280;64229;52.246;21.054;2022-11-12T02:12:32;101966.31;;;10.50;94.08
30897;BME280;64229;52.246;21.054;2022-11-12T02:15:17;101971.59;;;10.56;93.36
30897;BME280;64229;52.246;21.054;2022-11-12T02:17:42;101968.03;;;10.44;94.16
30897;BME280;64229;52.246;21.054;2022-11-12T02:20:10;101969.56;;;10.52;93.83
30897;BME280;64229;52.246;21.054;2022-11-12T02:22:35;101961.22;;;10.48;94.01
30897;BME280;64229;52.246;21.054;2022-11-12T02:25:01;101963.50;;;10.45;94.04
30897;BME280;64229;52.246;21.054;2022-11-12T02:27:27;101964.63;;;10.37;94.63
30897;BME280;64229;52.246;21.054;2022-11-12T02:29:52;101963.03;;;10.29;94.42
30897;BME280;64229;52.246;21.054;2022-11-12T02:32:17;101968.25;;;10.24;95.42
30897;BME280;64229;52.246;21.054;2022-11-12T02:34:44;101971.50;;;10.26;95.36
30897;BME280;64229;52.246;21.054;2022-11-12T02:37:09;101976.47;;;10.23;95.40
30897;BME280;64229;52.246;21.054;2022-11-12T02:39:35;101971.97;;;10.23;95.25
30897;BME280;64229;52.246;21.054;2022-11-12T02:42:00;101976.84;;;10.26;95.62
30897;BME280;64229;52.246;21.054;2022-11-12T02:44:26;101972.97;;;10.40;94.66
30897;BME280;64229;52.246;21.054;2022-11-12T02:46:51;101974.19;;;10.45;94.27
30897;BME280;64229;52.246;21.054;2022-11-12T02:49:17;101969.66;;;10.45;94.25
30897;BME280;64229;52.246;21.054;2022-11-12T02:51:42;101973.44;;;10.37;94.02
30897;BME280;64229;52.246;21.054;2022-11-12T02:54:07;101976.63;;;10.28;94.47
30897;BME280;64229;52.246;21.054;2022-11-12T02:56:33;101975.47;;;10.17;94.91
30897;BME280;64229;52.246;21.054;2022-11-12T02:59:00;101973.88;;;10.09;96.19
30897;BME280;64229;52.246;21.054;2022-11-12T03:01:25;101977.31;;;10.17;95.81
30897;BME280;64229;52.246;21.054;2022-11-12T03:03:50;101968.28;;;10.18;94.94
30897;BME280;64229;52.246;21.054;2022-11-12T03:06:16;101981.84;;;10.16;94.74
30897;BME280;64229;52.246;21.054;2022-11-12T03:08:41;101978.63;;;10.07;95.67
30897;BME280;64229;52.246;21.054;2022-11-12T03:11:09;101978.84;;;10.06;96.13
30897;BME280;64229;52.246;21.054;2022-11-12T03:13:35;101977.22;;;10.05;95.85
30897;BME280;64229;52.246;21.054;2022-11-12T03:16:00;101982.44;;;10.18;94.81
30897;BME280;64229;52.246;21.054;2022-11-12T03:18:26;101990.34;;;10.06;95.11
30897;BME280;64229;52.246;21.054;2022-11-12T03:20:51;101992.16;;;10.12;94.42
30897;BME280;64229;52.246;21.054;2022-11-12T03:23:17;101996.00;;;10.17;93.98
30897;BME280;64229;52.246;21.054;2022-11-12T03:25:42;101999.47;;;10.17;93.78
30897;BME280;64229;52.246;21.054;2022-11-12T03:28:11;101980.50;;;10.07;94.00
30897;BME280;64229;52.246;21.054;2022-11-12T03:30:38;102000.28;;;10.24;93.68
30897;BME280;64229;52.246;21.054;2022-11-12T03:33:05;101979.03;;;10.11;93.82
30897;BME280;64229;52.246;21.054;2022-11-12T03:35:31;101993.53;;;10.22;93.28
30897;BME280;64229;52.246;21.054;2022-11-12T03:37:58;101999.69;;;10.15;93.38
30897;BME280;64229;52.246;21.054;2022-11-12T03:40:23;102004.81;;;10.17;93.81
30897;BME280;64229;52.246;21.054;2022-11-12T03:42:50;102003.78;;;10.18;93.01
30897;BME280;64229;52.246;21.054;2022-11-12T03:45:16;101994.97;;;10.18;93.47
30897;BME280;64229;52.246;21.054;2022-11-12T03:47:47;101999.84;;;10.21;92.61
30897;BME280;64229;52.246;21.054;2022-11-12T03:50:14;101988.66;;;10.12;92.46
30897;BME280;64229;52.246;21.054;2022-11-12T03:52:44;101992.66;;;10.03;92.74
30897;BME280;64229;52.246;21.054;2022-11-12T03:55:11;101997.22;;;9.96;93.59
30897;BME280;64229;52.246;21.054;2022-11-12T03:57:36;101989.22;;;9.96;93.82
30897;BME280;64229;52.246;21.054;2022-11-12T04:00:04;101994.72;;;10.01;93.24
30897;BME280;64229;52.246;21.054;2022-11-12T04:02:29;101999.28;;;9.94;92.83
30897;BME280;64229;52.246;21.054;2022-11-12T04:04:55;101984.47;;;9.98;92.92
30897;BME280;64229;52.246;21.054;2022-11-12T04:07:39;101983.59;;;10.04;92.71
30897;BME280;64229;52.246;21.054;2022-11-12T04:10:23;101988.03;;;10.10;91.64
30897;BME280;64229;52.246;21.054;2022-11-12T04:12:48;101988.50;;;10.07;91.61
30897;BME280;64229;52.246;21.054;2022-11-12T04:15:32;101982.13;;;10.08;90.65
30897;BME280;64229;52.246;21.054;2022-11-12T04:17:57;101984.69;;;9.96;90.75
30897;BME280;64229;52.246;21.054;2022-11-12T04:20:41;101988.94;;;10.04;90.88
30897;BME280;64229;52.246;21.054;2022-11-12T04:23:25;101992.56;;;10.09;91.08
30897;BME280;64229;52.246;21.054;2022-11-12T04:25:51;101989.69;;;10.11;90.61
30897;BME280;64229;52.246;21.054;2022-11-12T04:28:35;101988.50;;;10.07;90.49
30897;BME280;64229;52.246;21.054;2022-11-12T04:31:00;101979.75;;;10.00;91.26
30897;BME280;64229;52.246;21.054;2022-11-12T04:33:25;101977.28;;;9.98;91.71
30897;BME280;64229;52.246;21.054;2022-11-12T04:35:51;101986.81;;;9.88;91.16
30897;BME280;64229;52.246;21.054;2022-11-12T04:38:16;101981.56;;;9.81;91.89
30897;BME280;64229;52.246;21.054;2022-11-12T04:40:41;101969.03;;;9.81;91.16
30897;BME280;64229;52.246;21.054;2022-11-12T04:43:25;101975.28;;;9.94;90.60
30897;BME280;64229;52.246;21.054;2022-11-12T04:46:09;101966.09;;;9.90;91.60
30897;BME280;64229;52.246;21.054;2022-11-12T04:48:34;101976.31;;;9.93;90.88
30897;BME280;64229;52.246;21.054;2022-11-12T04:51:02;101973.69;;;9.86;91.18
30897;BME280;64229;52.246;21.054;2022-11-12T04:53:28;101974.25;;;9.95;90.55
30897;BME280;64229;52.246;21.054;2022-11-12T04:55:56;101972.44;;;9.89;90.35
30897;BME280;64229;52.246;21.054;2022-11-12T04:58:22;101974.47;;;9.93;90.42
30897;BME280;64229;52.246;21.054;2022-11-12T05:00:49;101971.56;;;9.95;89.97
30897;BME280;64229;52.246;21.054;2022-11-12T05:03:15;101967.78;;;9.84;90.44
30897;BME280;64229;52.246;21.054;2022-11-12T05:05:40;101970.56;;;9.71;91.37
30897;BME280;64229;52.246;21.054;2022-11-12T05:08:06;101974.97;;;9.59;92.72
30897;BME280;64229;52.246;21.054;2022-11-12T05:10:31;101977.09;;;9.75;91.84
30897;BME280;64229;52.246;21.054;2022-11-12T05:12:56;101978.38;;;9.66;92.00
30897;BME280;64229;52.246;21.054;2022-11-12T05:15:22;101970.00;;;9.62;92.90
30897;BME280;64229;52.246;21.054;2022-11-12T05:17:47;101976.97;;;9.63;92.51
30897;BME280;64229;52.246;21.054;2022-11-12T05:20:13;101985.91;;;9.50;93.16
30897;BME280;64229;52.246;21.054;2022-11-12T05:22:39;101973.16;;;9.52;93.56
30897;BME280;64229;52.246;21.054;2022-11-12T05:25:06;101975.59;;;9.54;92.96
30897;BME280;64229;52.246;21.054;2022-11-12T05:27:31;101978.72;;;9.51;92.95
30897;BME280;64229;52.246;21.054;2022-11-12T05:29:57;101980.19;;;9.47;92.50
30897;BME280;64229;52.246;21.054;2022-11-12T05:32:22;101985.41;;;9.60;91.57
30897;BME280;64229;52.246;21.054;2022-11-12T05:34:48;101996.06;;;9.60;91.57
30897;BME280;64229;52.246;21.054;2022-11-12T05:37:14;101976.25;;;9.49;92.07
30897;BME280;64229;52.246;21.054;2022-11-12T05:39:39;101985.97;;;9.69;90.77
30897;BME280;64229;52.246;21.054;2022-11-12T05:42:05;101987.19;;;9.66;90.54
30897;BME280;64229;52.246;21.054;2022-11-12T05:44:31;101996.44;;;9.64;90.94
30897;BME280;64229;52.246;21.054;2022-11-12T05:46:56;101996.22;;;9.65;90.75
30897;BME280;64229;52.246;21.054;2022-11-12T05:49:22;102005.84;;;9.66;90.70
30897;BME280;64229;52.246;21.054;2022-11-12T05:51:47;102011.00;;;9.68;90.78
30897;BME280;64229;52.246;21.054;2022-11-12T05:54:13;102014.47;;;9.68;89.63
30897;BME280;64229;52.246;21.054;2022-11-12T05:56:38;102017.19;;;9.62;89.94
30897;BME280;64229;52.246;21.054;2022-11-12T05:59:06;102016.00;;;9.57;89.47
30897;BME280;64229;52.246;21.054;2022-11-12T06:01:33;102015.38;;;9.55;90.20
30897;BME280;64229;52.246;21.054;2022-11-12T06:04:00;102017.41;;;9.60;89.28
30897;BME280;64229;52.246;21.054;2022-11-12T06:06:25;102014.16;;;9.58;89.32
30897;BME280;64229;52.246;21.054;2022-11-12T06:08:50;102019.38;;;9.40;90.08
30897;BME280;64229;52.246;21.054;2022-11-12T06:11:16;102017.41;;;9.28;90.74
30897;BME280;64229;52.246;21.054;2022-11-12T06:13:41;102013.22;;;9.39;89.99
30897;BME280;64229;52.246;21.054;2022-11-12T06:16:07;102019.50;;;9.20;90.35
30897;BME280;64229;52.246;21.054;2022-11-12T06:18:33;102022.00;;;9.08;90.88
30897;BME280;64229;52.246;21.054;2022-11-12T06:21:03;102023.63;;;9.09;91.72
30897;BME280;64229;52.246;21.054;2022-11-12T06:23:45;102020.97;;;9.16;90.65
30897;BME280;64229;52.246;21.054;2022-11-12T06:26:10;102030.16;;;9.20;91.03
30897;BME280;64229;52.246;21.054;2022-11-12T06:28:35;102020.09;;;9.22;90.72
30897;BME280;64229;52.246;21.054;2022-11-12T06:33:26;102026.13;;;9.04;91.97
30897;BME280;64229;52.246;21.054;2022-11-12T06:36:02;102027.50;;;9.13;91.35
30897;BME280;64229;52.246;21.054;2022-11-12T06:38:29;102027.50;;;9.13;90.38
30897;BME280;64229;52.246;21.054;2022-11-12T06:40:55;102031.28;;;8.92;90.76
30897;BME280;64229;52.246;21.054;2022-11-12T06:43:20;102019.06;;;8.78;91.92
30897;BME280;64229;52.246;21.054;2022-11-12T06:45:45;102037.44;;;8.93;90.80
30897;BME280;64229;52.246;21.054;2022-11-12T06:48:11;102041.28;;;9.04;89.74
30897;BME280;64229;52.246;21.054;2022-11-12T06:50:36;102037.63;;;8.91;89.47
30897;BME280;64229;52.246;21.054;2022-11-12T06:53:01;102042.81;;;8.80;90.44
30897;BME280;64229;52.246;21.054;2022-11-12T06:55:27;102039.31;;;8.86;90.65
30897;BME280;64229;52.246;21.054;2022-11-12T06:57:52;102036.81;;;8.91;90.10
30897;BME280;64229;52.246;21.054;2022-11-12T07:00:18;102033.78;;;8.81;90.61
30897;BME280;64229;52.246;21.054;2022-11-12T07:02:44;102047.31;;;8.86;89.54
30897;BME280;64229;52.246;21.054;2022-11-12T07:05:09;102049.38;;;8.77;89.25
30897;BME280;64229;52.246;21.054;2022-11-12T07:07:34;102063.72;;;8.76;89.95
30897;BME280;64229;52.246;21.054;2022-11-12T07:10:00;102057.41;;;8.64;90.16
30897;BME280;64229;52.246;21.054;2022-11-12T07:12:25;102067.63;;;8.60;90.45
30897;BME280;64229;52.246;21.054;2022-11-12T07:14:50;102065.59;;;8.56;90.93
30897;BME280;64229;52.246;21.054;2022-11-12T07:17:16;102067.44;;;8.55;90.41
30897;BME280;64229;52.246;21.054;2022-11-12T07:19:42;102070.13;;;8.42;91.30
30897;BME280;64229;52.246;21.054;2022-11-12T07:22:07;102067.25;;;8.37;92.07
30897;BME280;64229;52.246;21.054;2022-11-12T07:24:32;102075.03;;;8.32;92.14
30897;BME280;64229;52.246;21.054;2022-11-12T07:26:57;102066.44;;;8.43;92.38
30897;BME280;64229;52.246;21.054;2022-11-12T07:29:23;102064.19;;;8.53;91.73
30897;BME280;64229;52.246;21.054;2022-11-12T07:31:48;102055.59;;;8.51;92.42
30897;BME280;64229;52.246;21.054;2022-11-12T07:34:13;102064.41;;;8.52;91.94
30897;BME280;64229;52.246;21.054;2022-11-12T07:36:39;102059.50;;;8.35;93.48
30897;BME280;64229;52.246;21.054;2022-11-12T07:39:04;102068.91;;;8.51;92.93
30897;BME280;64229;52.246;21.054;2022-11-12T07:41:29;102061.50;;;8.60;92.19
30897;BME280;64229;52.246;21.054;2022-11-12T07:43:55;102072.81;;;8.42;92.90
30897;BME280;64229;52.246;21.054;2022-11-12T07:46:25;102072.19;;;8.40;93.63
30897;BME280;64229;52.246;21.054;2022-11-12T07:48:51;102066.84;;;8.47;93.77
30897;BME280;64229;52.246;21.054;2022-11-12T07:51:25;102074.63;;;8.55;93.40
30897;BME280;64229;52.246;21.054;2022-11-12T07:53:56;102073.38;;;8.64;92.98
30897;BME280;64229;52.246;21.054;2022-11-12T07:56:23;102072.94;;;8.67;92.97
30897;BME280;64229;52.246;21.054;2022-11-12T07:58:49;102059.66;;;8.60;93.23
30897;BME280;64229;52.246;21.054;2022-11-12T08:01:33;102076.03;;;8.57;93.44
30897;BME280;64229;52.246;21.054;2022-11-12T08:04:00;102070.09;;;8.62;93.71
30897;BME280;64229;52.246;21.054;2022-11-12T08:06:27;102064.97;;;8.74;93.68
30897;BME280;64229;52.246;21.054;2022-11-12T08:08:54;102068.44;;;8.74;93.06
30897;BME280;64229;52.246;21.054;2022-11-12T08:11:21;102063.06;;;8.81;92.67
30897;BME280;64229;52.246;21.054;2022-11-12T08:13:46;102069.66;;;8.72;93.04
30897;BME280;64229;52.246;21.054;2022-11-12T08:16:11;102073.59;;;8.62;93.08
30897;BME280;64229;52.246;21.054;2022-11-12T08:18:37;102076.63;;;8.73;93.57
30897;BME280;64229;52.246;21.054;2022-11-12T08:21:05;102074.16;;;8.71;93.86
30897;BME280;64229;52.246;21.054;2022-11-12T08:23:31;102076.44;;;8.67;94.36
30897;BME280;64229;52.246;21.054;2022-11-12T08:26:00;102071.50;;;8.78;93.25
30897;BME280;64229;52.246;21.054;2022-11-12T08:28:30;102074.31;;;8.89;92.31
30897;BME280;64229;52.246;21.054;2022-11-12T08:30:57;102076.56;;;8.92;93.08
30897;BME280;64229;52.246;21.054;2022-11-12T08:33:23;102076.53;;;8.99;92.05
30897;BME280;64229;52.246;21.054;2022-11-12T08:35:48;102078.22;;;8.93;91.84
30897;BME280;64229;52.246;21.054;2022-11-12T08:38:13;102076.78;;;8.91;92.39
30897;BME280;64229;52.246;21.054;2022-11-12T08:40:39;102075.75;;;8.92;92.25
30897;BME280;64229;52.246;21.054;2022-11-12T08:43:07;102074.31;;;8.96;91.34
30897;BME280;64229;52.246;21.054;2022-11-12T08:45:37;102080.03;;;8.93;91.50
30897;BME280;64229;52.246;21.054;2022-11-12T08:48:05;102086.22;;;8.87;92.29
30897;BME280;64229;52.246;21.054;2022-11-12T08:50:32;102076.81;;;8.84;92.61
30897;BME280;64229;52.246;21.054;2022-11-12T08:53:03;102081.88;;;8.92;91.56
30897;BME280;64229;52.246;21.054;2022-11-12T08:55:30;102077.19;;;8.94;92.18
30897;BME280;64229;52.246;21.054;2022-11-12T08:57:57;102083.53;;;8.93;91.94
30897;BME280;64229;52.246;21.054;2022-11-12T09:00:30;102080.19;;;9.11;90.26
30897;BME280;64229;52.246;21.054;2022-11-12T09:02:58;102101.28;;;9.13;90.62
30897;BME280;64229;52.246;21.054;2022-11-12T09:05:24;102089.81;;;9.12;90.15
30897;BME280;64229;52.246;21.054;2022-11-12T09:07:58;102094.50;;;9.17;89.62
30897;BME280;64229;52.246;21.054;2022-11-12T09:10:25;102095.56;;;9.09;89.71
30897;BME280;64229;52.246;21.054;2022-11-12T09:12:51;102093.13;;;9.08;90.45
30897;BME280;64229;52.246;21.054;2022-11-12T09:15:17;102108.50;;;8.99;91.38
30897;BME280;64229;52.246;21.054;2022-11-12T09:17:42;102106.88;;;8.98;91.75
30897;BME280;64229;52.246;21.054;2022-11-12T09:20:08;102112.19;;;8.98;92.11
30897;BME280;64229;52.246;21.054;2022-11-12T09:22:33;102113.38;;;9.09;91.39
30897;BME280;64229;52.246;21.054;2022-11-12T09:24:59;102111.69;;;9.21;90.51
30897;BME280;64229;52.246;21.054;2022-11-12T09:27:27;102105.94;;;9.24;90.36
30897;BME280;64229;52.246;21.054;2022-11-12T09:29:53;102099.19;;;9.21;90.21
30897;BME280;64229;52.246;21.054;2022-11-12T09:32:18;102105.53;;;9.27;90.23
30897;BME280;64229;52.246;21.054;2022-11-12T09:34:43;102103.31;;;9.17;90.49
30897;BME280;64229;52.246;21.054;2022-11-12T09:37:09;102105.38;;;9.15;90.88
30897;BME280;64229;52.246;21.054;2022-11-12T09:39:34;102093.50;;;9.11;91.53
30897;BME280;64229;52.246;21.054;2022-11-12T09:42:05;102096.38;;;9.16;90.79
30897;BME280;64229;52.246;21.054;2022-11-12T09:44:31;102107.03;;;9.16;90.77
30897;BME280;64229;52.246;21.054;2022-11-12T09:47:03;102109.25;;;9.19;90.83
30897;BME280;64229;52.246;21.054;2022-11-12T09:49:37;102113.56;;;9.20;90.22
30897;BME280;64229;52.246;21.054;2022-11-12T09:52:26;102115.19;;;9.21;90.74
30897;BME280;64229;52.246;21.054;2022-11-12T09:57:47;102108.41;;;9.25;89.63
30897;BME280;64229;52.246;21.054;2022-11-12T10:00:16;102116.47;;;9.06;90.19
30897;BME280;64229;52.246;21.054;2022-11-12T10:02:51;102116.22;;;9.14;90.58
30897;BME280;64229;52.246;21.054;2022-11-12T10:05:32;102116.00;;;9.22;89.98
30897;BME280;64229;52.246;21.054;2022-11-12T10:08:14;102113.31;;;9.28;89.15
30897;BME280;64229;52.246;21.054;2022-11-12T10:10:47;102112.91;;;9.25;89.05
30897;BME280;64229;52.246;21.054;2022-11-12T10:19:08;102117.03;;;9.27;88.89
30897;BME280;64229;52.246;21.054;2022-11-12T10:22:17;102120.09;;;9.24;89.93
30897;BME280;64229;52.246;21.054;2022-11-12T10:24:49;102125.84;;;9.21;90.37
30897;BME280;64229;52.246;21.054;2022-11-12T10:27:19;102121.09;;;9.30;89.27
30897;BME280;64229;52.246;21.054;2022-11-12T10:29:54;102126.22;;;9.32;89.56
30897;BME280;64229;52.246;21.054;2022-11-12T10:32:22;102129.25;;;9.35;88.69
30897;BME280;64229;52.246;21.054;2022-11-12T10:34:47;102125.00;;;9.27;89.54
30897;BME280;64229;52.246;21.054;2022-11-12T10:39:49;102132.13;;;9.34;88.68
30897;BME280;64229;52.246;21.054;2022-11-12T10:42:19;102125.22;;;9.26;89.46
30897;BME280;64229;52.246;21.054;2022-11-12T10:44:45;102122.50;;;9.33;88.91
30897;BME280;64229;52.246;21.054;2022-11-12T10:47:27;102127.03;;;9.32;89.02
30897;BME280;64229;52.246;21.054;2022-11-12T10:50:24;102133.59;;;9.30;88.34
30897;BME280;64229;52.246;21.054;2022-11-12T10:53:03;102120.50;;;9.28;89.01
30897;BME280;64229;52.246;21.054;2022-11-12T10:55:31;102118.22;;;9.25;89.23
30897;BME280;64229;52.246;21.054;2022-11-12T10:58:11;102121.13;;;9.23;89.53
30897;BME280;64229;52.246;21.054;2022-11-12T11:00:51;102128.50;;;9.28;89.47
30897;BME280;64229;52.246;21.054;2022-11-12T11:03:25;102123.38;;;9.26;89.41
30897;BME280;64229;52.246;21.054;2022-11-12T11:06:02;102120.88;;;9.32;88.59
30897;BME280;64229;52.246;21.054;2022-11-12T11:08:43;102126.84;;;9.27;89.19
30897;BME280;64229;52.246;21.054;2022-11-12T11:11:28;102127.81;;;9.39;88.64
30897;BME280;64229;52.246;21.054;2022-11-12T11:14:29;102130.94;;;9.36;88.55
30897;BME280;64229;52.246;21.054;2022-11-12T11:17:02;102121.31;;;9.22;89.23
30897;BME280;64229;52.246;21.054;2022-11-12T11:19:37;102124.34;;;9.39;88.90
30897;BME280;64229;52.246;21.054;2022-11-12T11:22:20;102125.59;;;9.36;89.06
30897;BME280;64229;52.246;21.054;2022-11-12T11:35:29;102121.69;;;9.39;90.01
30897;BME280;64229;52.246;21.054;2022-11-12T11:38:19;102132.28;;;9.45;89.12
30897;BME280;64229;52.246;21.054;2022-11-12T11:44:20;102132.09;;;9.47;89.18
30897;BME280;64229;52.246;21.054;2022-11-12T11:46:56;102140.03;;;9.60;87.65
30897;BME280;64229;52.246;21.054;2022-11-12T11:50:31;102131.47;;;9.45;88.76
30897;BME280;64229;52.246;21.054;2022-11-12T11:52:48;102138.69;;;9.38;89.81
30897;BME280;64229;52.246;21.054;2022-11-12T12:00:53;102135.59;;;9.47;89.09
30897;BME280;64229;52.246;21.054;2022-11-12T12:03:22;102124.88;;;9.54;88.99
30897;BME280;64229;52.246;21.054;2022-11-12T12:11:29;102122.78;;;9.63;86.95
30897;BME280;64229;52.246;21.054;2022-11-12T12:17:02;102134.25;;;9.70;86.49
30897;BME280;64229;52.246;21.054;2022-11-12T12:19:54;102118.88;;;9.65;86.86
30897;BME280;64229;52.246;21.054;2022-11-12T12:22:35;102121.59;;;9.52;87.64
30897;BME280;64229;52.246;21.054;2022-11-12T12:25:23;102124.41;;;9.64;86.34
30897;BME280;64229;52.246;21.054;2022-11-12T12:27:56;102120.69;;;9.71;85.91
30897;BME280;64229;52.246;21.054;2022-11-12T12:30:25;102123.34;;;9.71;85.52
30897;BME280;64229;52.246;21.054;2022-11-12T12:33:26;102126.25;;;9.70;86.23
30897;BME280;64229;52.246;21.054;2022-11-12T12:35:57;102121.97;;;9.62;86.56
30897;BME280;64229;52.246;21.054;2022-11-12T12:38:31;102120.13;;;9.63;86.40
30897;BME280;64229;52.246;21.054;2022-11-12T12:41:10;102123.78;;;9.68;85.52
30897;BME280;64229;52.246;21.054;2022-11-12T12:43:42;102124.19;;;9.65;86.49
30897;BME280;64229;52.246;21.054;2022-11-12T12:46:11;102133.84;;;9.66;86.31
30897;BME280;64229;52.246;21.054;2022-11-12T12:48:39;102128.97;;;9.56;86.31
30897;BME280;64229;52.246;21.054;2022-11-12T12:51:06;102124.94;;;9.47;86.65
30897;BME280;64229;52.246;21.054;2022-11-12T12:53:33;102121.63;;;9.45;87.34
30897;BME280;64229;52.246;21.054;2022-11-12T12:56:04;102128.00;;;9.44;86.74
30897;BME280;64229;52.246;21.054;2022-11-12T13:06:14;102118.78;;;9.47;86.79
30897;BME280;64229;52.246;21.054;2022-11-12T13:17:00;102117.16;;;9.39;87.42
30897;BME280;64229;52.246;21.054;2022-11-12T13:30:07;102130.41;;;9.59;87.20
30897;BME280;64229;52.246;21.054;2022-11-12T13:42:56;102136.72;;;9.65;87.37
30897;BME280;64229;52.246;21.054;2022-11-12T13:45:25;102131.34;;;9.71;86.81
30897;BME280;64229;52.246;21.054;2022-11-12T13:47:51;102133.66;;;9.68;87.51
30897;BME280;64229;52.246;21.054;2022-11-12T13:50:22;102114.34;;;9.66;87.17
30897;BME280;64229;52.246;21.054;2022-11-12T13:52:48;102117.00;;;9.72;86.84
30897;BME280;64229;52.246;21.054;2022-11-12T13:55:16;102117.72;;;9.86;86.37
30897;BME280;64229;52.246;21.054;2022-11-12T13:57:50;102124.75;;;9.80;86.68
30897;BME280;64229;52.246;21.054;2022-11-12T14:00:28;102127.41;;;9.80;86.49
30897;BME280;64229;52.246;21.054;2022-11-12T14:03:00;102116.19;;;9.65;87.10
30897;BME280;64229;52.246;21.054;2022-11-12T14:05:29;102121.38;;;9.60;88.10
30897;BME280;64229;52.246;21.054;2022-11-12T14:14:09;102130.09;;;9.74;87.48
30897;BME280;64229;52.246;21.054;2022-11-12T14:20:07;102127.53;;;9.61;87.75
30897;BME280;64229;52.246;21.054;2022-11-12T14:22:41;102128.34;;;9.54;88.31
30897;BME280;64229;52.246;21.054;2022-11-12T14:25:17;102131.63;;;9.56;89.08
30897;BME280;64229;52.246;21.054;2022-11-12T14:27:44;102120.00;;;9.44;89.29
30897;BME280;64229;52.246;21.054;2022-11-12T14:32:41;102127.97;;;9.51;89.43